aviador You're here:

PFNO Decoded Metar

in
Report Time2017-12-15 14:04:00
UTC Time2017-12-15 14:11:50
Flight Rules lifr LIFR
Wind060° at 09 kt
W.Decomp.*RWY 06: 9.0 kt HW -0 kt LCW
W.Rank060° ranks 2
Current wind is below 060° avg. (11.2)
Visibility805 m
Phenomena:Freezing Fog
Clouds:Overcast 001 Hf
Expected CloudBase > 800 ft AGL from Temp-Dew spread
Ceiling100 ft
Temp-12°C
Dew Point-14°C (85% RH)
AAT-18.6°C
QNH1003 hPa
Raw Report
PFNO 151404Z AUTO 06009KT 1/2SM FZFG OVC001 M12/M14 A2961 RMK AO2
FZRANO=

Extra information for PFNO:More info

Social comments